Time;durP1;ratioP1;P1;durP2;ratioP2;P2;SDS_P1;SDS_P2;PMS_P1;PMS_P2;Temp;Humidity;BMP_temperature;BMP_pressure;BME280_temperature;BME280_humidity;BME280_pressure;Samples;Min_cycle;Max_cycle;Signal;HPM_P1;HPM_P2
2023/12/11 00:01:22;;;;;;;27.10;4.13;;;11.20;96.60;;;;;;6262438;28;20057;-88
2023/12/11 00:04:26;;;;;;;27.92;3.95;;;11.20;98.10;;;;;;6293576;28;20048;-85
2023/12/11 00:07:28;;;;;;;26.15;3.95;;;11.20;97.90;;;;;;6269601;28;20086;-85
2023/12/11 00:10:30;;;;;;;28.88;4.40;;;11.10;99.90;;;;;;6275296;28;20140;-87
2023/12/11 00:13:31;;;;;;;23.02;4.10;;;11.10;99.90;;;;;;6280603;28;20062;-86
2023/12/11 00:16:33;;;;;;;23.92;3.58;;;11.00;99.90;;;;;;6269127;28;20080;-87
2023/12/11 00:19:35;;;;;;;26.95;4.38;;;10.90;99.90;;;;;;6294164;28;20400;-87
2023/12/11 00:22:37;;;;;;;22.77;3.63;;;10.80;99.90;;;;;;6270209;28;20142;-87
2023/12/11 00:25:38;;;;;;;21.15;3.72;;;10.80;99.90;;;;;;6286055;28;20059;-86
2023/12/11 00:28:41;;;;;;;18.73;3.60;;;10.80;99.90;;;;;;6276610;28;20052;-86
2023/12/11 00:31:42;;;;;;;24.83;4.25;;;10.80;99.90;;;;;;6279643;28;20516;-85
2023/12/11 00:34:44;;;;;;;21.70;3.80;;;10.70;99.90;;;;;;6292187;28;20052;-87
2023/12/11 00:37:46;;;;;;;24.60;3.95;;;10.70;99.90;;;;;;6269722;28;20049;-87
2023/12/11 00:40:48;;;;;;;25.55;3.92;;;10.60;99.90;;;;;;6293109;28;20628;-88
2023/12/11 00:43:49;;;;;;;21.35;3.35;;;10.60;99.90;;;;;;6280138;28;20052;-88
2023/12/11 00:46:51;;;;;;;21.15;3.33;;;10.60;99.90;;;;;;6267259;28;20561;-88
2023/12/11 00:49:53;;;;;;;22.88;4.00;;;10.60;99.90;;;;;;6274686;28;20088;-89
2023/12/11 00:52:55;;;;;;;21.40;3.63;;;10.60;99.90;;;;;;6278533;28;20044;-90
2023/12/11 00:55:56;;;;;;;19.75;3.45;;;10.70;99.90;;;;;;6268719;28;20061;-87
2023/12/11 00:58:58;;;;;;;17.05;3.03;;;10.60;99.90;;;;;;6277355;28;20724;-89
2023/12/11 01:02:00;;;;;;;22.05;2.80;;;10.70;99.90;;;;;;6253127;28;1162095;-88
2023/12/11 01:05:02;;;;;;;16.63;2.85;;;10.80;99.10;;;;;;6269770;28;20065;-87
2023/12/11 01:08:04;;;;;;;17.80;3.10;;;10.90;98.70;;;;;;6282268;28;20051;-85
2023/12/11 01:11:05;;;;;;;23.17;3.10;;;10.90;98.50;;;;;;6294011;28;20415;-87
2023/12/11 01:14:07;;;;;;;19.52;3.22;;;11.00;98.30;;;;;;6286163;28;20059;-88
2023/12/11 01:17:09;;;;;;;21.33;3.13;;;10.90;99.10;;;;;;6270821;28;20115;-88
2023/12/11 01:20:30;;;;;;;23.05;4.20;;;11.00;98.90;;;;;;6272390;28;20100;-86
2023/12/11 01:23:32;;;;;;;16.27;2.95;;;11.00;98.30;;;;;;6296464;28;20075;-88
2023/12/11 01:26:34;;;;;;;23.55;3.58;;;11.00;98.20;;;;;;6273449;28;20049;-87
2023/12/11 01:29:35;;;;;;;22.42;3.25;;;11.00;98.00;;;;;;6292883;28;20052;-88
2023/12/11 01:32:37;;;;;;;21.88;3.47;;;11.00;98.80;;;;;;6270893;28;20056;-87
2023/12/11 01:35:39;;;;;;;22.45;2.90;;;11.00;99.10;;;;;;6296664;28;20425;-88
2023/12/11 01:38:40;;;;;;;16.50;3.00;;;11.00;98.70;;;;;;6274328;28;20053;-88
2023/12/11 01:41:42;;;;;;;20.63;3.22;;;11.00;98.80;;;;;;6295015;28;20052;-86
2023/12/11 01:44:44;;;;;;;21.92;3.50;;;11.00;98.70;;;;;;6265964;28;20056;-88
2023/12/11 01:47:45;;;;;;;18.98;2.92;;;10.90;98.80;;;;;;6259432;28;20050;-87
2023/12/11 01:50:47;;;;;;;21.15;3.05;;;11.00;98.40;;;;;;6252338;28;20087;-91
2023/12/11 01:53:49;;;;;;;16.73;2.65;;;11.00;98.60;;;;;;6297569;28;20052;-85
2023/12/11 01:56:50;;;;;;;21.33;3.20;;;11.00;98.70;;;;;;6286354;28;20052;-88
2023/12/11 01:59:52;;;;;;;20.42;2.95;;;11.00;99.20;;;;;;6311210;28;20067;-91
2023/12/11 02:02:54;;;;;;;18.23;3.10;;;11.00;97.90;;;;;;6258679;28;20064;-89
2023/12/11 02:05:56;;;;;;;19.70;2.92;;;11.00;98.00;;;;;;6246186;28;20499;-86
2023/12/11 02:08:57;;;;;;;18.77;3.20;;;11.00;98.10;;;;;;6247026;28;20056;-86
2023/12/11 02:11:59;;;;;;;19.38;3.03;;;11.00;98.40;;;;;;6268803;28;20054;-87
2023/12/11 02:15:01;;;;;;;17.52;3.17;;;11.00;97.60;;;;;;6237682;28;20046;-88
2023/12/11 02:18:02;;;;;;;15.80;2.50;;;11.00;96.80;;;;;;6248983;28;20042;-86
2023/12/11 02:21:04;;;;;;;16.70;3.10;;;11.00;97.80;;;;;;6254461;28;20050;-90
2023/12/11 02:24:06;;;;;;;18.00;2.63;;;11.00;95.50;;;;;;6250724;28;20050;-88
2023/12/11 02:27:07;;;;;;;20.00;2.72;;;11.00;95.90;;;;;;6259700;28;20145;-89
2023/12/11 02:30:09;;;;;;;16.73;3.28;;;11.00;96.40;;;;;;6267763;28;20057;-88
2023/12/11 02:33:11;;;;;;;22.55;2.97;;;10.90;97.20;;;;;;6247547;28;20056;-90
2023/12/11 02:36:12;;;;;;;16.42;2.95;;;10.80;98.60;;;;;;6257001;28;20054;-88
2023/12/11 02:39:14;;;;;;;15.65;3.08;;;10.70;99.50;;;;;;6251626;28;20057;-89
2023/12/11 02:42:15;;;;;;;18.73;3.60;;;10.60;99.90;;;;;;6221601;28;20060;-88
2023/12/11 02:45:17;;;;;;;25.48;3.72;;;10.60;99.80;;;;;;6247395;28;20524;-88
2023/12/11 02:48:19;;;;;;;21.05;3.30;;;10.60;99.60;;;;;;6225864;28;20797;-89
2023/12/11 02:51:21;;;;;;;16.75;3.45;;;10.60;99.90;;;;;;6247895;28;20053;-89
2023/12/11 02:54:23;;;;;;;15.63;2.75;;;10.60;99.30;;;;;;6222900;28;20042;-91
2023/12/11 02:57:24;;;;;;;23.80;3.17;;;10.70;98.90;;;;;;6246230;28;20084;-88
2023/12/11 03:00:26;;;;;;;17.00;3.15;;;10.60;98.40;;;;;;6217197;28;20087;-87
2023/12/11 03:03:28;;;;;;;22.65;3.28;;;10.60;98.60;;;;;;6297987;28;20499;-89
2023/12/11 03:06:29;;;;;;;18.75;3.03;;;10.50;99.20;;;;;;6269319;28;20046;-92
2023/12/11 03:09:31;;;;;;;20.63;3.25;;;10.50;99.40;;;;;;6299215;28;20053;-88
2023/12/11 03:12:33;;;;;;;25.25;3.50;;;10.50;99.80;;;;;;6276110;28;20052;-88
2023/12/11 03:15:34;;;;;;;19.80;2.83;;;10.40;99.90;;;;;;6272912;28;20174;-84
2023/12/11 03:18:36;;;;;;;16.73;2.58;;;10.40;99.90;;;;;;6249633;28;20129;-87
2023/12/11 03:21:38;;;;;;;23.40;3.58;;;10.40;99.90;;;;;;6306007;28;20060;-86
2023/12/11 03:24:40;;;;;;;17.30;2.60;;;10.40;99.90;;;;;;6297324;28;20055;-88
2023/12/11 03:27:41;;;;;;;18.05;3.38;;;10.30;99.90;;;;;;6275191;28;20048;-89
2023/12/11 03:30:43;;;;;;;18.58;2.90;;;10.30;99.90;;;;;;6297081;28;20052;-85
2023/12/11 03:33:45;;;;;;;23.10;3.30;;;10.20;99.90;;;;;;6248007;28;20060;-86
2023/12/11 03:36:47;;;;;;;16.25;3.08;;;10.20;99.90;;;;;;6306062;28;20056;-87
2023/12/11 03:39:48;;;;;;;18.30;3.05;;;10.20;99.90;;;;;;6297054;28;20060;-89
2023/12/11 03:42:51;;;;;;;16.25;2.60;;;10.10;99.90;;;;;;6275024;28;20059;-86
2023/12/11 03:45:55;;;;;;;21.83;4.10;;;10.10;99.90;;;;;;6296416;28;20055;-86
2023/12/11 03:48:57;;;;;;;21.90;3.08;;;10.10;99.90;;;;;;6272020;28;20765;-87
2023/12/11 03:51:59;;;;;;;22.63;3.75;;;10.10;99.90;;;;;;6296374;28;20056;-89
2023/12/11 03:55:01;;;;;;;23.17;3.10;;;10.00;99.90;;;;;;6272924;28;20132;-87
2023/12/11 03:58:02;;;;;;;19.45;2.70;;;10.00;99.90;;;;;;6288222;28;20105;-89
2023/12/11 04:01:04;;;;;;;21.42;3.50;;;9.90;99.90;;;;;;6277796;28;20053;-86
2023/12/11 04:04:06;;;;;;;20.88;3.47;;;9.90;99.90;;;;;;6294770;28;20053;-88
2023/12/11 04:07:08;;;;;;;22.35;3.47;;;9.90;99.90;;;;;;6270378;28;20102;-87
2023/12/11 04:10:10;;;;;;;17.90;3.45;;;9.90;99.90;;;;;;6294708;28;20052;-89
2023/12/11 04:13:12;;;;;;;24.88;4.15;;;9.90;99.90;;;;;;6277221;28;20159;-86
2023/12/11 04:16:14;;;;;;;24.58;3.45;;;10.00;99.90;;;;;;6296650;28;20555;-88
2023/12/11 04:19:15;;;;;;;24.15;3.80;;;9.90;99.90;;;;;;6259517;28;20559;-86
2023/12/11 04:22:17;;;;;;;22.45;3.28;;;9.90;99.90;;;;;;6294375;28;20045;-88
2023/12/11 04:25:19;;;;;;;22.05;3.60;;;9.90;99.90;;;;;;6272081;28;20412;-86
2023/12/11 04:28:21;;;;;;;18.63;3.38;;;9.90;99.90;;;;;;6289718;28;20121;-88
2023/12/11 04:31:23;;;;;;;19.98;3.17;;;9.80;99.90;;;;;;6296730;28;20060;-87
2023/12/11 04:34:25;;;;;;;30.77;3.88;;;9.80;99.90;;;;;;6270708;28;20045;-85
2023/12/11 04:37:26;;;;;;;24.42;3.30;;;9.80;99.90;;;;;;6291661;28;20056;-87
2023/12/11 04:40:29;;;;;;;20.35;3.72;;;9.80;99.90;;;;;;6294866;28;20090;-87
2023/12/11 04:43:33;;;;;;;22.02;3.90;;;9.70;99.90;;;;;;6275434;28;20497;-88
2023/12/11 04:46:34;;;;;;;22.63;3.53;;;9.80;99.90;;;;;;6263138;28;20552;-86
2023/12/11 04:49:36;;;;;;;28.70;3.63;;;9.80;99.90;;;;;;6296712;28;20052;-88
2023/12/11 04:52:38;;;;;;;23.05;3.08;;;9.90;99.90;;;;;;6273232;28;20053;-88
2023/12/11 04:55:40;;;;;;;21.85;3.80;;;9.80;99.90;;;;;;6295543;28;20049;-87
2023/12/11 04:58:42;;;;;;;23.13;3.63;;;9.90;99.90;;;;;;6281058;28;20056;-89
2023/12/11 05:01:43;;;;;;;19.73;3.22;;;9.90;99.90;;;;;;6281557;28;20095;-89
2023/12/11 05:04:45;;;;;;;17.63;3.15;;;10.00;99.90;;;;;;6292043;28;20052;-89
2023/12/11 05:07:47;;;;;;;17.23;3.08;;;10.10;99.90;;;;;;6263745;28;20053;-89
2023/12/11 05:10:49;;;;;;;15.63;2.67;;;10.30;99.90;;;;;;6272966;28;20064;-89
2023/12/11 05:13:50;;;;;;;19.98;3.45;;;10.30;99.90;;;;;;6282818;28;20053;-89
2023/12/11 05:16:52;;;;;;;20.05;3.60;;;10.40;99.90;;;;;;6296083;28;20040;-88
2023/12/11 05:19:54;;;;;;;18.35;2.78;;;10.40;99.90;;;;;;6272557;28;20049;-90
2023/12/11 05:22:55;;;;;;;18.02;2.78;;;10.40;99.90;;;;;;6297064;28;20060;-86
2023/12/11 05:25:57;;;;;;;19.02;3.55;;;10.40;99.90;;;;;;6272456;28;20059;-89
2023/12/11 05:29:00;;;;;;;21.67;3.47;;;10.50;99.90;;;;;;6280669;28;20057;-88
2023/12/11 05:32:02;;;;;;;20.70;2.90;;;10.50;99.90;;;;;;6281855;28;20074;-88
2023/12/11 05:35:03;;;;;;;19.58;3.40;;;10.50;99.90;;;;;;6299118;28;20048;-90
2023/12/11 05:38:05;;;;;;;17.67;2.78;;;10.50;99.90;;;;;;6275624;28;20056;-88
2023/12/11 05:41:07;;;;;;;16.55;2.67;;;10.60;99.90;;;;;;6299719;28;20048;-87
2023/12/11 05:44:09;;;;;;;15.80;2.38;;;10.50;99.90;;;;;;6288481;28;20415;-88
2023/12/11 05:47:11;;;;;;;22.13;3.10;;;10.50;99.90;;;;;;6275784;28;20469;-88
2023/12/11 05:50:13;;;;;;;13.82;2.60;;;10.50;99.90;;;;;;6279027;28;20048;-86
2023/12/11 05:53:14;;;;;;;19.77;3.10;;;10.50;99.90;;;;;;6299677;28;20051;-87
2023/12/11 05:56:16;;;;;;;18.77;2.95;;;10.50;99.90;;;;;;6273392;28;20393;-88
2023/12/11 05:59:18;;;;;;;17.20;2.65;;;10.50;99.90;;;;;;6279547;28;20053;-87
2023/12/11 06:02:19;;;;;;;17.02;2.80;;;10.50;99.90;;;;;;6297949;28;20052;-86
2023/12/11 06:05:21;;;;;;;22.70;3.40;;;10.50;99.90;;;;;;6273479;28;20175;-88
2023/12/11 06:08:23;;;;;;;21.58;3.20;;;10.50;99.90;;;;;;6255779;28;20615;-87
2023/12/11 06:11:24;;;;;;;15.90;2.33;;;10.50;99.90;;;;;;6273354;28;20179;-88
2023/12/11 06:14:26;;;;;;;16.48;2.75;;;10.50;99.90;;;;;;6279741;28;20048;-86
2023/12/11 06:17:28;;;;;;;14.00;2.53;;;10.50;99.90;;;;;;6271520;28;20057;-86
2023/12/11 06:20:30;;;;;;;16.10;2.50;;;10.50;99.90;;;;;;6297718;28;20135;-88
2023/12/11 06:23:32;;;;;;;25.48;3.35;;;10.50;99.90;;;;;;6274441;28;20053;-88
2023/12/11 06:26:36;;;;;;;20.17;3.25;;;10.50;99.90;;;;;;6286334;28;20061;-87
2023/12/11 06:29:38;;;;;;;13.60;2.30;;;10.40;99.90;;;;;;6291928;28;20049;-87
2023/12/11 06:32:40;;;;;;;15.77;2.90;;;10.40;99.90;;;;;;6273204;28;20052;-86
2023/12/11 06:35:42;;;;;;;17.02;3.13;;;10.30;99.90;;;;;;6297208;28;20095;-86
2023/12/11 06:38:44;;;;;;;15.68;2.67;;;10.10;99.90;;;;;;6250850;28;20052;-87
2023/12/11 06:41:45;;;;;;;16.63;2.90;;;10.10;99.90;;;;;;6298536;28;20052;-87
2023/12/11 06:44:47;;;;;;;18.90;2.90;;;9.90;99.90;;;;;;6270383;28;20053;-87
2023/12/11 06:47:49;;;;;;;17.33;2.20;;;9.80;99.90;;;;;;6298591;28;20049;-87
2023/12/11 06:50:50;;;;;;;15.25;3.15;;;9.70;99.90;;;;;;6274000;28;20060;-88
2023/12/11 06:53:58;;;;;;;18.38;3.03;;;9.70;99.90;;;;;;6277770;28;20045;-87
2023/12/11 06:57:00;;;;;;;18.90;2.90;;;9.60;99.90;;;;;;6298645;28;20074;-87
2023/12/11 07:00:03;;;;;;;19.67;3.08;;;9.60;99.90;;;;;;6271994;28;20053;-87
2023/12/11 07:03:05;;;;;;;20.90;3.45;;;9.60;99.90;;;;;;6274485;28;20103;-85
2023/12/11 07:06:07;;;;;;;20.48;3.17;;;9.60;99.90;;;;;;6298200;28;20055;-87
2023/12/11 07:09:10;;;;;;;17.90;3.08;;;9.50;99.90;;;;;;6270823;28;20071;-89
2023/12/11 07:12:11;;;;;;;17.23;3.00;;;9.40;99.90;;;;;;6285860;28;20053;-87
2023/12/11 07:15:13;;;;;;;13.93;2.53;;;9.30;99.90;;;;;;6295148;28;20044;-86
2023/12/11 07:18:15;;;;;;;17.23;2.50;;;9.30;99.90;;;;;;6274205;28;20056;-86
2023/12/11 07:21:17;;;;;;;18.05;2.70;;;9.20;99.90;;;;;;6252166;28;20055;-87
2023/12/11 07:24:18;;;;;;;17.25;2.50;;;9.10;99.90;;;;;;6295775;28;20063;-86
2023/12/11 07:27:20;;;;;;;16.25;2.75;;;9.10;99.90;;;;;;6271723;28;20412;-86
2023/12/11 07:30:22;;;;;;;17.33;3.40;;;9.10;99.90;;;;;;6276884;28;20101;-84
2023/12/11 07:33:23;;;;;;;15.43;2.42;;;9.00;99.90;;;;;;6281924;28;20061;-84
2023/12/11 07:36:25;;;;;;;19.08;2.65;;;9.00;99.90;;;;;;6294453;28;20080;-86
2023/12/11 07:39:27;;;;;;;14.95;2.33;;;9.00;99.90;;;;;;6271718;28;20555;-86
2023/12/11 07:42:28;;;;;;;19.25;2.88;;;9.00;99.90;;;;;;6295140;28;20052;-86
2023/12/11 07:45:30;;;;;;;15.40;2.40;;;9.00;99.90;;;;;;6267765;28;20060;-86
2023/12/11 07:48:32;;;;;;;16.65;3.00;;;9.10;99.90;;;;;;6245605;28;20464;-86
2023/12/11 07:51:34;;;;;;;14.88;2.65;;;9.20;99.90;;;;;;6300712;28;20500;-86
2023/12/11 07:54:36;;;;;;;14.98;2.40;;;9.30;99.90;;;;;;6294628;28;20051;-85
2023/12/11 07:57:39;;;;;;;11.50;2.30;;;9.30;99.90;;;;;;6261611;28;20698;-86
2023/12/11 08:00:42;;;;;;;13.52;2.63;;;9.40;99.90;;;;;;6278028;28;20059;-88
2023/12/11 08:03:43;;;;;;;12.15;2.13;;;9.50;99.90;;;;;;6253475;28;20098;-86
2023/12/11 08:06:45;;;;;;;15.50;2.10;;;9.50;99.90;;;;;;6265157;28;20053;-86
2023/12/11 08:09:48;;;;;;;15.18;2.30;;;9.60;99.90;;;;;;6271578;28;20426;-85
2023/12/11 08:12:51;;;;;;;12.32;1.88;;;9.60;99.90;;;;;;6294041;28;20369;-87
2023/12/11 08:15:55;;;;;;;14.07;2.25;;;9.60;99.90;;;;;;6272688;28;20045;-87
2023/12/11 08:18:56;;;;;;;11.15;1.95;;;9.60;99.90;;;;;;6269717;28;20049;-87
2023/12/11 08:21:58;;;;;;;14.52;2.40;;;9.60;99.90;;;;;;6277347;28;20048;-88
2023/12/11 08:25:00;;;;;;;11.90;2.08;;;9.60;99.90;;;;;;6298759;28;20063;-88
2023/12/11 08:28:02;;;;;;;13.35;2.13;;;9.70;99.90;;;;;;6277299;28;20117;-90
2023/12/11 08:31:03;;;;;;;11.20;2.53;;;9.70;99.90;;;;;;6292781;28;20067;-87
2023/12/11 08:34:05;;;;;;;14.00;2.13;;;9.70;99.90;;;;;;6273112;28;20056;-88
2023/12/11 08:37:07;;;;;;;12.32;2.20;;;9.70;99.90;;;;;;6278658;28;20059;-86
2023/12/11 08:40:13;;;;;;;11.68;2.10;;;9.80;99.90;;;;;;6295744;28;20601;-87
2023/12/11 08:43:14;;;;;;;14.38;2.30;;;9.90;99.90;;;;;;6279095;28;20063;-88
2023/12/11 08:46:16;;;;;;;12.40;2.03;;;9.80;99.90;;;;;;6265132;28;20052;-87
2023/12/11 08:49:18;;;;;;;11.82;2.28;;;9.80;99.90;;;;;;6273883;28;20067;-91
2023/12/11 08:52:20;;;;;;;10.13;1.63;;;9.80;99.90;;;;;;6282890;28;20185;-87
2023/12/11 08:55:21;;;;;;;9.18;2.13;;;9.80;99.90;;;;;;6270488;28;20045;-86
2023/12/11 08:58:24;;;;;;;12.40;2.10;;;9.70;99.90;;;;;;6282050;28;20102;-89
2023/12/11 09:01:26;;;;;;;13.65;2.60;;;9.60;99.90;;;;;;6284913;28;20052;-87
2023/12/11 09:04:27;;;;;;;14.60;2.20;;;9.50;99.90;;;;;;6270105;28;20049;-85
2023/12/11 09:07:29;;;;;;;11.27;2.00;;;9.60;99.90;;;;;;6294197;28;20064;-87
2023/12/11 09:10:32;;;;;;;10.75;1.95;;;9.60;99.90;;;;;;6258062;28;20049;-87
2023/12/11 09:13:33;;;;;;;12.07;2.00;;;9.50;99.90;;;;;;6285412;28;20400;-86
2023/12/11 09:16:35;;;;;;;13.65;2.13;;;9.50;99.90;;;;;;6270042;28;20764;-83
2023/12/11 09:19:37;;;;;;;10.80;1.95;;;9.60;99.90;;;;;;6291450;28;20056;-84
2023/12/11 09:22:52;;;;;;;10.55;1.92;;;9.60;99.90;;;;;;6259162;28;20496;-86
2023/12/11 09:25:53;;;;;;;11.82;2.03;;;9.80;99.90;;;;;;6303207;28;20041;-87
2023/12/11 09:28:55;;;;;;;10.13;1.65;;;9.90;99.90;;;;;;6264563;28;20057;-85
2023/12/11 09:31:56;;;;;;;9.20;1.90;;;10.10;99.90;;;;;;6268514;28;20495;-86
2023/12/11 09:34:58;;;;;;;11.27;2.28;;;10.30;99.90;;;;;;6289816;28;20065;-84
2023/12/11 09:38:01;;;;;;;7.85;1.60;;;10.40;99.90;;;;;;6289741;28;20548;-89
2023/12/11 09:41:03;;;;;;;12.65;2.25;;;10.40;99.90;;;;;;6309634;28;20045;-90
2023/12/11 09:44:05;;;;;;;9.57;1.55;;;10.50;99.90;;;;;;6292026;28;20049;-92
2023/12/11 09:47:08;;;;;;;8.27;2.05;;;10.50;99.90;;;;;;6274232;28;20519;-93
2023/12/11 09:50:10;;;;;;;7.07;1.27;;;10.50;99.90;;;;;;6305471;28;20091;-91
2023/12/11 09:53:13;;;;;;;6.18;1.38;;;10.60;99.90;;;;;;6275463;28;20049;-90
2023/12/11 09:56:15;;;;;;;7.97;1.63;;;10.60;99.90;;;;;;6293305;28;20044;-85
2023/12/11 09:59:17;;;;;;;4.60;1.00;;;10.60;99.90;;;;;;6282687;28;20055;-84
2023/12/11 10:02:19;;;;;;;8.25;1.50;;;10.70;99.90;;;;;;6270917;28;20083;-90
2023/12/11 10:05:21;;;;;;;8.20;1.20;;;10.70;99.90;;;;;;6298650;28;20052;-88
2023/12/11 10:08:22;;;;;;;8.65;1.58;;;10.70;99.00;;;;;;6275398;28;20132;-90
2023/12/11 10:11:26;;;;;;;7.70;1.58;;;10.70;99.90;;;;;;6296576;28;20082;-86
2023/12/11 10:14:29;;;;;;;5.97;1.45;;;10.70;99.80;;;;;;6271093;28;20060;-90
2023/12/11 10:17:31;;;;;;;8.07;1.70;;;10.70;99.90;;;;;;6298527;28;20076;-90
2023/12/11 10:20:34;;;;;;;8.15;1.92;;;10.80;99.90;;;;;;6277901;28;20049;-90
2023/12/11 10:23:36;;;;;;;10.00;1.85;;;10.80;96.30;;;;;;6300890;28;20500;-87
2023/12/11 10:26:38;;;;;;;7.13;1.63;;;10.80;97.90;;;;;;6276653;28;20073;-90
2023/12/11 10:29:40;;;;;;;5.50;1.63;;;11.00;98.60;;;;;;6300576;28;20065;-88
2023/12/11 10:32:41;;;;;;;5.82;1.13;;;11.00;96.90;;;;;;6278099;28;20060;-89
2023/12/11 10:35:43;;;;;;;9.07;1.30;;;11.10;95.70;;;;;;6301571;28;20056;-88
2023/12/11 10:38:46;;;;;;;7.57;1.45;;;11.20;94.30;;;;;;6284870;28;20518;-89
2023/12/11 10:41:47;;;;;;;6.75;1.95;;;11.20;93.40;;;;;;6278331;28;20045;-90
2023/12/11 10:44:49;;;;;;;11.40;1.58;;;11.40;93.80;;;;;;6300539;28;20059;-89
2023/12/11 10:47:55;;;;;;;6.15;1.10;;;11.50;92.30;;;;;;6268957;28;20068;-91
2023/12/11 10:50:57;;;;;;;7.25;1.42;;;11.40;91.50;;;;;;6318213;28;20041;-89
2023/12/11 10:53:58;;;;;;;8.00;1.58;;;11.20;92.40;;;;;;6278019;28;20073;-88
2023/12/11 10:57:01;;;;;;;7.43;1.50;;;11.10;92.70;;;;;;6301209;28;20052;-90
2023/12/11 11:00:04;;;;;;;5.90;1.30;;;11.70;87.90;;;;;;6275931;28;20106;-88
2023/12/11 11:03:06;;;;;;;6.55;1.00;;;12.80;61.80;;;;;;6301352;28;20052;-88
2023/12/11 11:06:08;;;;;;;5.07;1.20;;;13.60;21.40;;;;;;6276229;28;20059;-90
2023/12/11 11:09:10;;;;;;;4.90;1.40;;;14.10;26.00;;;;;;6303580;28;20057;-91
2023/12/11 11:12:12;;;;;;;8.45;1.27;;;14.70;1.00;;;;;;6282059;28;20049;-93
2023/12/11 11:15:13;;;;;;;5.05;1.20;;;14.70;1.00;;;;;;6271005;28;20067;-85
2023/12/11 11:18:15;;;;;;;3.65;1.10;;;14.80;1.00;;;;;;6287605;28;20307;-89
2023/12/11 11:21:17;;;;;;;3.05;0.90;;;14.20;1.00;;;;;;6260474;28;20060;-88
2023/12/11 11:24:18;;;;;;;5.55;1.10;;;13.40;1.00;;;;;;6265833;28;20399;-90
2023/12/11 11:27:20;;;;;;;4.40;1.10;;;13.50;1.00;;;;;;6296786;28;20072;-89
2023/12/11 11:30:22;;;;;;;7.72;1.33;;;13.60;1.00;;;;;;6268751;28;20056;-91
2023/12/11 11:33:23;;;;;;;4.93;0.90;;;13.30;1.00;;;;;;6290901;28;20063;-88
2023/12/11 11:36:25;;;;;;;10.32;1.45;;;13.10;1.00;;;;;;6271062;28;20057;-92
2023/12/11 11:39:27;;;;;;;6.35;1.20;;;12.70;1.00;;;;;;6298115;28;20123;-90
2023/12/11 11:42:37;;;;;;;15.18;1.85;;;12.40;6.50;;;;;;6264211;28;20448;-84
2023/12/11 11:45:39;;;;;;;9.52;1.55;;;12.30;21.20;;;;;;6265515;28;20069;-84
2023/12/11 11:48:41;;;;;;;11.13;1.88;;;12.10;25.90;;;;;;6249041;28;20053;-89
2023/12/11 11:51:44;;;;;;;14.05;2.00;;;12.00;27.70;;;;;;6287454;28;20480;-85
2023/12/11 11:54:45;;;;;;;7.78;1.95;;;11.90;35.90;;;;;;6276932;28;20045;-88
2023/12/11 11:57:49;;;;;;;10.75;2.10;;;12.00;39.00;;;;;;6276778;28;20045;-90
2023/12/11 12:00:51;;;;;;;9.55;2.17;;;11.90;29.40;;;;;;6249771;28;20073;-83
2023/12/11 12:03:53;;;;;;;9.55;2.40;;;11.90;37.60;;;;;;6247576;28;20099;-90
2023/12/11 12:06:55;;;;;;;9.90;3.03;;;11.90;40.70;;;;;;6260768;28;20064;-85
2023/12/11 12:09:59;;;;;;;8.80;2.10;;;11.90;36.50;;;;;;6295406;28;20060;-88
2023/12/11 12:13:01;;;;;;;7.72;1.80;;;11.90;30.90;;;;;;6273103;28;20478;-87
2023/12/11 12:16:03;;;;;;;11.90;2.03;;;11.90;33.70;;;;;;6267025;28;20057;-87
2023/12/11 12:19:05;;;;;;;9.52;1.95;;;11.80;38.80;;;;;;6287773;28;20049;-86
2023/12/11 12:22:07;;;;;;;10.43;2.20;;;11.80;33.60;;;;;;6262693;28;20057;-86
2023/12/11 12:25:09;;;;;;;7.45;1.83;;;11.70;38.70;;;;;;6262970;28;20152;-84
2023/12/11 12:28:11;;;;;;;8.13;2.05;;;11.70;36.80;;;;;;6263451;28;20053;-85
2023/12/11 12:31:13;;;;;;;7.80;2.00;;;11.70;35.10;;;;;;6285262;28;20238;-85
2023/12/11 12:34:16;;;;;;;12.52;2.88;;;11.70;36.70;;;;;;6264409;28;20137;-85
2023/12/11 12:37:18;;;;;;;10.13;2.08;;;11.70;36.70;;;;;;6246013;28;20148;-83
2023/12/11 12:40:20;;;;;;;9.10;2.03;;;11.70;38.00;;;;;;6257787;28;20053;-89
2023/12/11 12:43:21;;;;;;;11.65;2.35;;;11.80;34.90;;;;;;6272843;28;20060;-89
2023/12/11 12:46:23;;;;;;;10.35;2.03;;;11.70;37.30;;;;;;6270842;28;20076;-88
2023/12/11 12:49:25;;;;;;;10.40;2.30;;;11.80;38.80;;;;;;6249777;28;20048;-91
2023/12/11 12:52:28;;;;;;;11.18;2.08;;;11.70;39.70;;;;;;6283021;28;20064;-91
2023/12/11 12:55:30;;;;;;;11.60;2.13;;;11.70;46.80;;;;;;6252616;28;20537;-92
2023/12/11 12:58:32;;;;;;;10.25;1.98;;;11.70;50.90;;;;;;6286243;28;20158;-89
2023/12/11 13:01:37;;;;;;;8.93;1.80;;;11.70;47.00;;;;;;6281856;28;20072;-89
2023/12/11 13:04:40;;;;;;;6.78;1.73;;;11.80;39.60;;;;;;6266241;28;20140;-91
2023/12/11 13:07:44;;;;;;;9.32;1.80;;;12.10;32.20;;;;;;6272118;28;20057;-93
2023/12/11 13:10:46;;;;;;;8.63;1.90;;;12.80;23.30;;;;;;6296429;28;20053;-92
2023/12/11 13:13:48;;;;;;;5.13;1.27;;;13.40;9.70;;;;;;6273452;28;20053;-91
2023/12/11 13:16:49;;;;;;;6.20;1.40;;;14.10;1.00;;;;;;6281564;28;20056;-92
2023/12/11 13:19:51;;;;;;;6.07;1.70;;;14.50;1.00;;;;;;6269462;28;20095;-91
2023/12/11 13:22:54;;;;;;;4.32;1.50;;;14.80;1.00;;;;;;6259552;28;20063;-93
2023/12/11 13:25:55;;;;;;;7.57;1.67;;;15.20;1.00;;;;;;6265804;28;20112;-94
2023/12/11 13:28:57;;;;;;;6.88;1.40;;;15.40;1.00;;;;;;6278203;28;20049;-95
2023/12/11 13:31:59;;;;;;;10.65;1.70;;;15.60;1.00;;;;;;6307930;28;20055;-94
2023/12/11 13:35:02;;;;;;;6.32;1.30;;;15.70;1.00;;;;;;6280437;28;20065;-92
2023/12/11 13:38:04;;;;;;;4.28;1.05;;;15.40;1.00;;;;;;6274078;28;20057;-92
2023/12/11 13:41:06;;;;;;;3.95;1.08;;;14.80;1.00;;;;;;6257102;28;20049;-92
2023/12/11 13:44:09;;;;;;;8.45;1.17;;;14.30;1.00;;;;;;6300914;28;20048;-90
2023/12/11 13:47:11;;;;;;;5.47;1.00;;;13.90;1.00;;;;;;6264573;28;20057;-93
2023/12/11 13:50:13;;;;;;;6.88;1.38;;;13.60;1.00;;;;;;6270297;28;20060;-86
2023/12/11 13:53:15;;;;;;;6.47;1.40;;;13.30;1.00;;;;;;6266539;28;20076;-86
2023/12/11 13:56:21;;;;;;;6.45;1.33;;;13.30;1.00;;;;;;6265706;28;20060;-82
2023/12/11 13:59:24;;;;;;;6.50;1.30;;;13.00;1.00;;;;;;6263661;28;20422;-85
2023/12/11 14:02:25;;;;;;;7.38;1.67;;;12.80;1.00;;;;;;6283601;28;20056;-85
2023/12/11 14:05:51;;;;;;;12.73;2.03;;;12.60;1.00;;;;;;6291245;28;20056;-86
2023/12/11 14:08:53;;;;;;;7.93;1.85;;;12.50;4.30;;;;;;6259229;28;20184;-86
2023/12/11 14:11:55;;;;;;;8.20;1.95;;;12.40;5.00;;;;;;6258351;28;20445;-88
2023/12/11 14:14:57;;;;;;;7.60;1.70;;;12.20;2.40;;;;;;6280870;28;20049;-86
2023/12/11 14:17:58;;;;;;;8.50;1.92;;;12.10;4.60;;;;;;6277409;28;20056;-87
2023/12/11 14:21:01;;;;;;;9.77;2.30;;;12.00;6.10;;;;;;6272994;28;20122;-86
2023/12/11 14:24:04;;;;;;;7.90;1.88;;;11.90;6.50;;;;;;6279494;28;20463;-87
2023/12/11 14:27:05;;;;;;;7.75;2.22;;;11.80;9.90;;;;;;6296118;28;20505;-85
2023/12/11 14:30:07;;;;;;;8.20;2.00;;;11.70;13.20;;;;;;6261245;28;20063;-85
2023/12/11 14:33:09;;;;;;;9.07;2.05;;;11.60;11.80;;;;;;6267064;28;20067;-86
2023/12/11 14:36:11;;;;;;;7.90;1.80;;;11.30;15.20;;;;;;6270108;28;20041;-86
2023/12/11 14:39:23;;;;;;;11.50;2.30;;;11.30;22.70;;;;;;6267495;28;20052;-85
2023/12/11 14:42:26;;;;;;;8.95;1.90;;;11.10;32.20;;;;;;6299435;28;20073;-86
2023/12/11 14:45:30;;;;;;;11.30;2.40;;;10.90;34.90;;;;;;6284110;28;20076;-86
2023/12/11 14:48:32;;;;;;;10.38;2.15;;;10.90;46.00;;;;;;6316783;28;20044;-86
2023/12/11 14:51:38;;;;;;;10.60;2.10;;;10.80;47.90;;;;;;6273633;28;20083;-86
2023/12/11 14:54:41;;;;;;;8.50;2.35;;;10.80;58.00;;;;;;6273245;28;20049;-85
2023/12/11 14:57:42;;;;;;;9.80;2.28;;;10.80;62.90;;;;;;6290139;28;20884;-86
2023/12/11 15:00:44;;;;;;;10.05;2.15;;;10.80;66.80;;;;;;6265345;28;20058;-85
2023/12/11 15:03:46;;;;;;;11.32;2.35;;;10.80;65.70;;;;;;6247640;28;20128;-85
2023/12/11 15:06:48;;;;;;;11.40;2.63;;;10.80;66.40;;;;;;6265712;28;20140;-83
2023/12/11 15:09:49;;;;;;;7.35;2.33;;;10.90;62.10;;;;;;6281348;28;20394;-84
2023/12/11 15:12:51;;;;;;;10.95;2.63;;;10.90;63.00;;;;;;6284597;28;20109;-85
2023/12/11 15:15:53;;;;;;;11.07;2.63;;;10.90;63.00;;;;;;6286510;28;20096;-84
2023/12/11 15:18:55;;;;;;;11.13;2.92;;;10.80;65.90;;;;;;6255146;28;20061;-82
2023/12/11 15:21:57;;;;;;;9.73;2.65;;;10.70;65.30;;;;;;6291964;28;20052;-84
2023/12/11 15:24:58;;;;;;;18.90;2.85;;;10.60;69.70;;;;;;6247494;28;20081;-86
2023/12/11 15:28:00;;;;;;;11.73;2.60;;;10.40;73.30;;;;;;6271733;28;20045;-86
2023/12/11 15:31:02;;;;;;;12.18;2.47;;;10.40;76.50;;;;;;6273755;28;20057;-89
2023/12/11 15:34:14;;;;;;;11.73;2.42;;;10.20;82.10;;;;;;6261048;28;20057;-84
2023/12/11 15:37:16;;;;;;;6.43;1.92;;;10.10;85.20;;;;;;6310511;28;20530;-86
2023/12/11 15:40:18;;;;;;;7.97;2.20;;;10.00;89.10;;;;;;6253338;28;20134;-85
2023/12/11 15:43:19;;;;;;;5.85;2.10;;;10.00;91.60;;;;;;6286506;28;20055;-84